createdAt,value
2016-07-12T00:26:38.636Z,23.68
2016-07-12T00:26:54.288Z,23.67
2016-07-12T00:27:38.353Z,23.66
2016-07-12T00:28:32.640Z,23.63
2016-07-12T00:29:38.382Z,23.59
2016-07-12T00:30:21.202Z,23.55
2016-07-12T00:31:35.581Z,23.53
2016-07-12T00:32:26.688Z,23.54
2016-07-12T00:33:22.045Z,23.49
2016-07-12T00:34:20.918Z,23.49
2016-07-12T00:35:34.576Z,23.51
2016-07-12T00:36:29.569Z,23.52
2016-07-12T00:37:31.704Z,23.54
2016-07-12T00:38:35.953Z,23.53
2016-07-12T00:39:29.151Z,23.54
2016-07-12T00:40:34.378Z,23.54
2016-07-12T00:41:37.535Z,23.52
2016-07-12T00:42:34.068Z,23.55
2016-07-12T00:43:29.463Z,23.54
2016-07-12T00:44:29.056Z,23.54
2016-07-12T00:45:28.986Z,23.53
2016-07-12T00:46:33.723Z,23.53
2016-07-12T00:47:30.827Z,23.51
2016-07-12T00:48:42.627Z,23.50
2016-07-12T00:49:40.115Z,23.51
2016-07-12T00:50:33.623Z,23.49
2016-07-12T00:51:42.923Z,23.46
2016-07-12T00:52:28.406Z,23.49
2016-07-12T00:53:17.954Z,23.50
2016-07-12T00:54:17.293Z,23.49
2016-07-12T00:55:15.534Z,23.40
2016-07-12T00:56:17.789Z,23.41
2016-07-12T00:57:15.954Z,23.38
2016-07-12T00:58:18.286Z,23.39
2016-07-12T00:59:19.236Z,23.47
2016-07-12T01:00:25.988Z,23.47
2016-07-12T01:01:19.620Z,23.46
2016-07-12T01:02:34.176Z,23.46
2016-07-12T01:03:24.774Z,23.46
2016-07-12T01:04:28.371Z,23.44
2016-07-12T01:05:34.628Z,23.43
2016-07-12T01:06:33.997Z,23.44
2016-07-12T01:07:26.155Z,23.44
2016-07-12T01:08:43.002Z,23.42
2016-07-12T01:09:35.221Z,23.45
2016-07-12T01:10:31.743Z,23.42
2016-07-12T01:11:41.847Z,23.43
2016-07-12T01:12:33.801Z,23.46
2016-07-12T01:13:11.129Z,23.45
2016-07-12T01:14:28.993Z,23.43
2016-07-12T01:15:28.984Z,23.44
2016-07-12T01:16:39.695Z,23.44
2016-07-12T01:17:31.107Z,23.45
2016-07-12T01:18:24.338Z,23.46
2016-07-12T01:19:32.822Z,23.44
2016-07-12T01:20:36.342Z,23.48
2016-07-12T01:21:41.930Z,23.45
2016-07-12T01:22:29.120Z,23.44
2016-07-12T01:23:28.278Z,23.43
2016-07-12T01:24:35.375Z,23.44
2016-07-12T01:25:33.060Z,23.46
2016-07-12T01:26:34.296Z,23.47
2016-07-12T01:27:28.492Z,23.47
2016-07-12T01:28:28.830Z,23.49
2016-07-12T01:29:48.712Z,23.51
2016-07-12T01:30:34.746Z,23.49
2016-07-12T01:31:28.770Z,23.45
2016-07-12T01:32:31.551Z,23.40
2016-07-12T01:33:27.512Z,23.42
2016-07-12T01:34:47.614Z,23.40
2016-07-12T01:35:24.133Z,23.40
2016-07-12T01:36:32.762Z,23.39
2016-07-12T01:37:29.744Z,23.43
2016-07-12T01:38:16.244Z,23.43
2016-07-12T01:39:33.833Z,23.43
2016-07-12T01:40:23.135Z,23.44
2016-07-12T01:41:29.566Z,23.40
2016-07-12T01:42:35.548Z,23.39
2016-07-12T01:43:42.045Z,23.40
2016-07-12T01:44:34.013Z,23.36
2016-07-12T01:45:34.849Z,23.38
2016-07-12T01:46:43.675Z,23.42
2016-07-12T01:47:28.914Z,23.43
2016-07-12T01:48:28.081Z,23.42
2016-07-12T01:49:31.306Z,23.42
2016-07-12T01:50:24.945Z,23.42
2016-07-12T01:51:34.216Z,23.43
2016-07-12T01:52:38.570Z,23.44
2016-07-12T01:53:36.862Z,23.46
2016-07-12T01:54:26.211Z,23.47
2016-07-12T01:55:42.610Z,23.47
2016-07-12T01:56:28.851Z,23.44
2016-07-12T01:57:34.116Z,23.40
2016-07-12T01:58:17.850Z,23.36
2016-07-12T01:59:21.854Z,23.37
2016-07-12T02:00:34.698Z,23.37
2016-07-12T02:01:35.208Z,23.40
2016-07-12T02:02:31.047Z,23.39
2016-07-12T02:03:19.807Z,23.38
2016-07-12T02:04:18.331Z,23.34
2016-07-12T02:05:18.968Z,23.36
2016-07-12T02:06:14.343Z,23.37
2016-07-12T02:07:12.813Z,23.38
2016-07-12T02:08:22.700Z,23.42
2016-07-12T02:09:14.592Z,23.39
2016-07-12T02:10:33.775Z,23.40
2016-07-12T02:11:28.770Z,23.38
2016-07-12T02:12:28.439Z,23.40
2016-07-12T02:13:28.423Z,23.37
2016-07-12T02:14:31.248Z,23.36
2016-07-12T02:15:41.754Z,23.35
2016-07-12T02:16:25.039Z,23.32
2016-07-12T02:17:33.044Z,23.33
2016-07-12T02:18:23.802Z,23.35
2016-07-12T02:19:34.174Z,23.34
2016-07-12T02:20:28.824Z,23.33
2016-07-12T02:21:25.874Z,23.30
2016-07-12T02:22:34.487Z,23.31
2016-07-12T02:23:26.542Z,23.30
2016-07-12T02:24:33.622Z,23.27
2016-07-12T02:25:33.684Z,23.28
2016-07-12T02:26:36.674Z,23.27
2016-07-12T02:27:39.374Z,23.26
2016-07-12T02:28:22.197Z,23.25
2016-07-12T02:29:27.351Z,23.32
2016-07-12T02:30:28.324Z,23.27
2016-07-12T02:31:38.426Z,23.26
2016-07-12T02:32:33.972Z,23.26
2016-07-12T02:33:27.668Z,23.28
2016-07-12T02:34:30.913Z,23.27
2016-07-12T02:35:48.921Z,23.28
2016-07-12T02:36:28.570Z,23.30
2016-07-12T02:37:36.962Z,23.31
2016-07-12T02:38:30.505Z,23.30
2016-07-12T02:39:29.509Z,23.35
2016-07-12T02:40:28.348Z,23.30
2016-07-12T02:41:34.542Z,23.31
2016-07-12T02:42:33.640Z,23.29
2016-07-12T02:43:32.171Z,23.28
2016-07-12T02:44:28.900Z,23.30
2016-07-12T02:45:35.272Z,23.28
2016-07-12T02:46:30.402Z,23.31
2016-07-12T02:47:35.353Z,23.33
2016-07-12T02:48:31.233Z,23.31
2016-07-12T02:49:25.373Z,23.31
2016-07-12T02:50:28.820Z,23.33
2016-07-12T02:51:42.445Z,23.36
2016-07-12T02:52:43.419Z,23.35
2016-07-12T02:53:17.792Z,23.34
2016-07-12T02:54:34.359Z,23.34
2016-07-12T02:55:37.699Z,23.33
2016-07-12T02:56:28.017Z,23.41
2016-07-12T02:57:37.600Z,23.33
2016-07-12T02:58:19.922Z,23.34
2016-07-12T02:59:31.432Z,23.32
2016-07-12T03:00:34.308Z,23.34
2016-07-12T03:01:42.352Z,23.33
2016-07-12T03:02:34.843Z,23.33
2016-07-12T03:03:21.411Z,23.36
2016-07-12T03:04:21.375Z,23.32
2016-07-12T03:05:44.365Z,23.31
2016-07-12T03:06:37.556Z,23.30
2016-07-12T03:07:48.126Z,23.29
2016-07-12T03:08:17.541Z,23.30
2016-07-12T03:09:31.730Z,23.28
2016-07-12T03:10:36.501Z,23.27
2016-07-12T03:11:20.283Z,23.27
2016-07-12T03:12:24.852Z,23.28
2016-07-12T03:13:18.316Z,23.28
2016-07-12T03:14:19.874Z,23.27
2016-07-12T03:15:13.691Z,23.29
2016-07-12T03:16:34.803Z,23.28
2016-07-12T03:17:34.960Z,23.28
2016-07-12T03:18:28.859Z,23.24
2016-07-12T03:19:30.932Z,23.25
2016-07-12T03:20:33.412Z,23.30
2016-07-12T03:21:37.182Z,23.24
2016-07-12T03:22:42.500Z,23.25
2016-07-12T03:23:28.829Z,23.23
2016-07-12T03:24:27.878Z,23.25
2016-07-12T03:25:28.257Z,23.25
2016-07-12T03:26:37.663Z,23.26
2016-07-12T03:27:37.707Z,23.25
2016-07-12T03:28:26.826Z,23.26
2016-07-12T03:29:23.653Z,23.25
2016-07-12T03:30:28.930Z,23.27
2016-07-12T03:31:34.527Z,23.27
2016-07-12T03:32:41.769Z,23.26
2016-07-12T03:33:21.747Z,23.24
2016-07-12T03:34:30.983Z,23.27
2016-07-12T03:35:43.540Z,23.27
2016-07-12T03:36:35.183Z,23.28
2016-07-12T03:37:40.296Z,23.30
2016-07-12T03:38:28.848Z,23.29
2016-07-12T03:39:43.086Z,23.33
2016-07-12T03:40:32.438Z,23.33
2016-07-12T03:41:36.216Z,23.32
2016-07-12T03:42:37.428Z,23.27
2016-07-12T03:43:46.286Z,23.26
2016-07-12T03:44:30.298Z,23.26
2016-07-12T03:45:28.127Z,23.27
2016-07-12T03:46:34.808Z,23.28
2016-07-12T03:47:48.459Z,23.33
2016-07-12T03:48:27.479Z,23.30
2016-07-12T03:49:41.291Z,23.25
2016-07-12T03:50:29.632Z,23.25
2016-07-12T03:51:38.594Z,23.25
2016-07-12T03:52:31.442Z,23.26
2016-07-12T03:53:29.840Z,23.30
2016-07-12T03:54:33.824Z,23.28
2016-07-12T03:55:37.548Z,23.29
2016-07-12T03:56:34.231Z,23.32
2016-07-12T03:57:29.447Z,23.33
2016-07-12T03:58:27.659Z,23.34
2016-07-12T03:59:18.270Z,23.33
2016-07-12T04:00:37.953Z,23.32
2016-07-12T04:01:35.578Z,23.29
2016-07-12T04:02:31.387Z,23.27
2016-07-12T04:03:31.452Z,23.28
2016-07-12T04:04:43.116Z,23.27
2016-07-12T04:05:29.106Z,23.27
2016-07-12T04:06:37.608Z,23.28
2016-07-12T04:07:38.012Z,23.27
2016-07-12T04:08:33.688Z,23.28
2016-07-12T04:09:32.659Z,23.28
2016-07-12T04:10:34.701Z,23.28
2016-07-12T04:11:29.052Z,23.30
2016-07-12T04:12:33.645Z,23.32
2016-07-12T04:13:31.743Z,23.33
2016-07-12T04:14:31.824Z,23.35
2016-07-12T04:15:22.714Z,23.34
2016-07-12T04:16:15.896Z,23.33
2016-07-12T04:17:24.251Z,23.31
2016-07-12T04:18:18.398Z,23.30
2016-07-12T04:19:15.642Z,23.32
2016-07-12T04:20:23.967Z,23.28
2016-07-12T04:21:34.495Z,23.27
2016-07-12T04:22:40.859Z,23.25
2016-07-12T04:23:28.518Z,23.22
2016-07-12T04:24:29.670Z,23.23
2016-07-12T04:25:35.456Z,23.23
2016-07-12T04:26:38.339Z,23.26
2016-07-12T04:27:43.517Z,23.25
2016-07-12T04:28:37.822Z,23.25
2016-07-12T04:29:45.163Z,23.27
2016-07-12T04:30:43.833Z,23.27
2016-07-12T04:31:36.831Z,23.30
2016-07-12T04:32:38.844Z,23.30
2016-07-12T04:33:37.950Z,23.34
2016-07-12T04:34:29.824Z,23.33
2016-07-12T04:35:30.826Z,23.35
2016-07-12T04:36:32.855Z,23.36
2016-07-12T04:37:40.846Z,23.37
2016-07-12T04:38:36.162Z,23.35
2016-07-12T04:39:31.761Z,23.31
2016-07-12T04:40:34.690Z,23.34
2016-07-12T04:41:39.724Z,23.33
2016-07-12T04:42:34.417Z,23.33
2016-07-12T04:43:28.434Z,23.30
2016-07-12T04:44:37.929Z,23.28
2016-07-12T04:45:42.854Z,23.26
2016-07-12T04:46:36.800Z,23.25
2016-07-12T04:47:37.238Z,23.26
2016-07-12T04:48:41.021Z,23.27
2016-07-12T04:49:33.983Z,23.28
2016-07-12T04:50:42.394Z,23.26
2016-07-12T04:51:34.519Z,23.26
2016-07-12T04:52:23.755Z,23.25
2016-07-12T04:53:11.622Z,23.25
2016-07-12T04:54:29.201Z,23.25
2016-07-12T04:55:38.836Z,23.29
2016-07-12T04:56:30.581Z,23.30
2016-07-12T04:57:30.869Z,23.30
2016-07-12T04:58:26.462Z,23.27
2016-07-12T04:59:30.966Z,23.24
2016-07-12T05:00:28.711Z,23.24
2016-07-12T05:01:34.685Z,23.25
2016-07-12T05:02:39.652Z,23.28
2016-07-12T05:03:24.476Z,23.30
2016-07-12T05:04:35.810Z,23.32
2016-07-12T05:05:35.238Z,23.32
2016-07-12T05:06:38.240Z,23.33
2016-07-12T05:07:34.694Z,23.34
2016-07-12T05:08:35.749Z,23.35
2016-07-12T05:09:37.271Z,23.35
2016-07-12T05:10:33.130Z,23.35
2016-07-12T05:11:21.601Z,23.34
2016-07-12T05:12:42.602Z,23.36
2016-07-12T05:13:29.146Z,23.37
2016-07-12T05:14:39.543Z,23.39
2016-07-12T05:15:37.809Z,23.39
2016-07-12T05:16:28.361Z,23.39
2016-07-12T05:17:41.213Z,23.37
2016-07-12T05:18:23.979Z,23.32
2016-07-12T05:19:40.339Z,23.30
2016-07-12T05:20:36.369Z,23.25
2016-07-12T05:21:12.067Z,23.26
2016-07-12T05:22:18.112Z,23.29
2016-07-12T05:23:19.531Z,23.31
2016-07-12T05:24:14.595Z,23.34
2016-07-12T05:25:13.389Z,23.34
2016-07-12T05:26:19.494Z,23.33
2016-07-12T05:27:11.731Z,23.32
2016-07-12T05:28:30.726Z,23.30
2016-07-12T05:29:23.238Z,23.29
2016-07-12T05:30:37.746Z,23.31
2016-07-12T05:31:41.489Z,23.28
2016-07-12T05:32:33.279Z,23.26
2016-07-12T05:33:25.636Z,23.23
2016-07-12T05:34:28.982Z,23.24
2016-07-12T05:35:33.862Z,23.25
2016-07-12T05:36:34.364Z,23.24
2016-07-12T05:37:22.931Z,23.24
2016-07-12T05:38:32.183Z,23.23
2016-07-12T05:39:28.590Z,23.24
2016-07-12T05:40:12.705Z,23.29
2016-07-12T05:41:31.268Z,23.20
2016-07-12T05:42:42.276Z,23.17
2016-07-12T05:43:24.773Z,23.16
2016-07-12T05:44:36.713Z,23.14
2016-07-12T05:45:21.575Z,23.13
2016-07-12T05:46:33.930Z,23.15
2016-07-12T05:47:38.191Z,23.14
2016-07-12T05:48:33.008Z,23.16
2016-07-12T05:49:27.481Z,23.17
2016-07-12T05:50:35.315Z,23.19
2016-07-12T05:51:35.734Z,23.18
2016-07-12T05:52:36.885Z,23.20
2016-07-12T05:53:29.110Z,23.18
2016-07-12T05:54:22.997Z,23.04
2016-07-12T05:55:29.825Z,22.87
2016-07-12T05:56:43.034Z,22.77
2016-07-12T05:57:37.247Z,22.72
2016-07-12T05:58:24.502Z,22.69
2016-07-12T05:59:19.057Z,22.68
2016-07-12T06:00:28.293Z,22.65
2016-07-12T06:01:28.297Z,22.62
2016-07-12T06:02:35.820Z,22.60
2016-07-12T06:03:27.178Z,22.59
2016-07-12T06:04:32.190Z,22.55
2016-07-12T06:05:32.010Z,22.48
2016-07-12T06:06:43.773Z,22.50
2016-07-12T06:07:38.469Z,22.53
2016-07-12T06:08:21.868Z,22.55
2016-07-12T06:09:32.897Z,22.50
2016-07-12T06:10:39.139Z,22.42
2016-07-12T06:11:35.191Z,22.37
2016-07-12T06:12:36.639Z,22.37
2016-07-12T06:13:32.317Z,22.42
2016-07-12T06:14:22.305Z,22.47
2016-07-12T06:15:42.154Z,22.43
2016-07-12T06:16:30.419Z,22.41
2016-07-12T06:17:28.600Z,22.44
2016-07-12T06:18:29.026Z,22.42
2016-07-12T06:19:44.941Z,22.39
2016-07-12T06:20:32.823Z,22.42
2016-07-12T06:21:31.504Z,22.43
2016-07-12T06:22:34.829Z,22.46
2016-07-12T06:23:17.572Z,22.47
2016-07-12T06:24:31.672Z,22.47
2016-07-12T06:25:31.428Z,22.50
2016-07-12T06:26:43.520Z,22.48
2016-07-12T06:27:18.089Z,22.47
2016-07-12T06:28:29.346Z,22.52
2016-07-12T06:29:28.508Z,22.55
2016-07-12T06:30:25.398Z,22.54
2016-07-12T06:31:21.838Z,22.55
2016-07-12T06:32:15.316Z,22.53
2016-07-12T06:33:17.471Z,22.52
2016-07-12T06:34:21.474Z,22.48
2016-07-12T06:35:20.810Z,22.58
2016-07-12T06:36:23.690Z,22.58
2016-07-12T06:37:43.991Z,22.52
2016-07-12T06:38:22.290Z,22.55
2016-07-12T06:39:24.622Z,22.56
2016-07-12T06:40:26.782Z,22.47
2016-07-12T06:41:40.907Z,22.48
2016-07-12T06:42:34.813Z,22.55
2016-07-12T06:43:48.998Z,22.55
2016-07-12T06:44:38.068Z,22.53
2016-07-12T06:45:37.742Z,22.49
2016-07-12T06:46:41.010Z,22.47
2016-07-12T06:47:37.300Z,22.47
2016-07-12T06:48:33.961Z,22.44
2016-07-12T06:49:33.222Z,22.42
2016-07-12T06:50:38.519Z,22.48
2016-07-12T06:51:35.044Z,22.50
2016-07-12T06:52:33.400Z,22.46
2016-07-12T06:53:32.158Z,22.44
2016-07-12T06:54:34.689Z,22.43
2016-07-12T06:55:40.221Z,22.45
2016-07-12T06:56:36.758Z,22.44
2016-07-12T06:57:35.079Z,22.41
2016-07-12T06:58:31.510Z,22.36
2016-07-12T06:59:33.941Z,22.36
2016-07-12T07:00:43.193Z,22.37
2016-07-12T07:01:34.163Z,22.43
2016-07-12T07:02:17.034Z,22.50
2016-07-12T07:03:28.886Z,22.48
2016-07-12T07:04:22.399Z,22.38
2016-07-12T07:05:27.188Z,22.37
2016-07-12T07:06:34.814Z,22.38
2016-07-12T07:07:37.132Z,22.32
2016-07-12T07:08:42.359Z,22.40
2016-07-12T07:09:47.694Z,22.22
2016-07-12T07:10:34.484Z,22.13
2016-07-12T07:11:34.901Z,22.17
2016-07-12T07:12:33.522Z,22.20
2016-07-12T07:13:35.981Z,22.25
2016-07-12T07:14:34.690Z,22.15
2016-07-12T07:15:27.372Z,22.16
2016-07-12T07:16:48.933Z,22.11
2016-07-12T07:17:43.729Z,22.07
2016-07-12T07:18:37.017Z,22.05
2016-07-12T07:19:40.765Z,22.06
2016-07-12T07:20:42.319Z,22.12
2016-07-12T07:21:48.249Z,22.17
2016-07-12T07:22:37.820Z,22.20
2016-07-12T07:23:42.488Z,22.24
2016-07-12T07:24:43.819Z,22.28
2016-07-12T07:25:38.503Z,22.27
2016-07-12T07:26:26.596Z,22.29
2016-07-12T07:27:43.330Z,22.28
2016-07-12T07:28:32.278Z,22.30
2016-07-12T07:29:36.718Z,22.24
2016-07-12T07:30:20.314Z,22.27
2016-07-12T07:31:47.499Z,22.29
2016-07-12T07:32:35.869Z,22.32
2016-07-12T07:33:44.535Z,22.32
2016-07-12T07:34:27.924Z,22.34
2016-07-12T07:35:37.669Z,22.31
2016-07-12T07:36:34.962Z,22.34
2016-07-12T07:37:35.647Z,22.30
2016-07-12T07:38:23.114Z,22.32
2016-07-12T07:39:23.071Z,22.31
2016-07-12T07:40:40.368Z,22.32
2016-07-12T07:41:28.956Z,22.31
2016-07-12T07:42:42.980Z,22.33
2016-07-12T07:43:34.445Z,22.30
2016-07-12T07:44:43.008Z,22.36
2016-07-12T07:45:34.798Z,22.29
2016-07-12T07:46:39.457Z,22.28
2016-07-12T07:47:18.963Z,22.34
2016-07-12T07:48:43.736Z,22.24
2016-07-12T07:49:49.376Z,22.34
2016-07-12T07:50:36.502Z,22.33
2016-07-12T07:51:15.945Z,22.29
2016-07-12T07:52:40.205Z,22.37
2016-07-12T07:53:42.319Z,22.36
2016-07-12T07:54:41.897Z,22.36
2016-07-12T07:55:28.688Z,22.37
2016-07-12T07:56:43.120Z,22.37
2016-07-12T07:57:28.115Z,22.82
2016-07-12T07:58:33.795Z,23.18
2016-07-12T07:59:28.137Z,23.01
2016-07-12T08:00:35.886Z,22.82
2016-07-12T08:01:28.102Z,22.70
2016-07-12T08:02:35.416Z,22.61
2016-07-12T08:03:34.943Z,22.56
2016-07-12T08:04:30.931Z,22.51
2016-07-12T08:05:36.959Z,22.46
2016-07-12T08:06:42.823Z,22.42
2016-07-12T08:07:37.839Z,22.40
2016-07-12T08:08:36.642Z,22.47
2016-07-12T08:09:27.601Z,22.44
2016-07-12T08:10:48.518Z,22.47
2016-07-12T08:11:23.222Z,22.50
2016-07-12T08:12:24.358Z,22.56
2016-07-12T08:13:31.064Z,22.52
2016-07-12T08:14:20.920Z,22.55
2016-07-12T08:15:34.972Z,22.57
2016-07-12T08:16:33.208Z,22.57
2016-07-12T08:17:43.003Z,22.56
2016-07-12T08:18:25.705Z,22.54
2016-07-12T08:19:34.132Z,22.54
2016-07-12T08:20:19.310Z,22.53
2016-07-12T08:21:29.288Z,22.53
2016-07-12T08:22:28.674Z,22.50
2016-07-12T08:23:30.531Z,22.51
2016-07-12T08:24:32.933Z,22.52
2016-07-12T08:25:28.831Z,22.51
2016-07-12T08:26:29.951Z,22.53
2016-07-12T08:27:30.196Z,22.53
2016-07-12T08:28:34.672Z,22.51
2016-07-12T08:29:38.377Z,22.52
2016-07-12T08:30:37.920Z,22.49
2016-07-12T08:31:38.281Z,22.53
2016-07-12T08:32:48.149Z,22.52
2016-07-12T08:33:30.203Z,22.52
2016-07-12T08:34:40.066Z,22.54
2016-07-12T08:35:32.932Z,22.56
2016-07-12T08:36:31.243Z,22.58
2016-07-12T08:37:36.791Z,22.61
2016-07-12T08:38:28.662Z,22.65
2016-07-12T08:39:29.602Z,22.67
2016-07-12T08:40:33.836Z,22.66
2016-07-12T08:41:38.608Z,22.66
2016-07-12T08:42:27.960Z,22.66
2016-07-12T08:43:46.731Z,22.67
2016-07-12T08:44:40.032Z,22.69
2016-07-12T08:45:22.620Z,22.71
2016-07-12T08:46:33.003Z,22.73
2016-07-12T08:47:37.558Z,22.71
2016-07-12T08:48:38.087Z,22.70
2016-07-12T08:49:34.398Z,22.69
2016-07-12T08:50:32.346Z,22.69
2016-07-12T08:51:33.185Z,22.68
2016-07-12T08:52:21.325Z,22.67
2016-07-12T08:53:34.946Z,22.65
2016-07-12T08:54:19.228Z,22.61
2016-07-12T08:55:23.745Z,22.65
2016-07-12T08:56:32.308Z,22.67
2016-07-12T08:57:36.851Z,22.67
2016-07-12T08:58:28.261Z,22.65
2016-07-12T08:59:32.490Z,22.69
2016-07-12T09:00:37.585Z,22.73
2016-07-12T09:01:30.603Z,22.74
2016-07-12T09:02:35.078Z,22.78
2016-07-12T09:03:28.529Z,22.76
2016-07-12T09:04:32.150Z,22.79
2016-07-12T09:05:25.008Z,22.79
2016-07-12T09:06:16.502Z,22.81
2016-07-12T09:07:32.334Z,22.82
2016-07-12T09:08:37.520Z,22.81
2016-07-12T09:09:39.246Z,22.77
2016-07-12T09:10:24.668Z,22.71
2016-07-12T09:11:25.389Z,22.65
2016-07-12T09:12:55.413Z,22.65
2016-07-12T09:13:26.523Z,22.64
2016-07-12T09:14:33.828Z,22.70
2016-07-12T09:15:37.604Z,22.60
2016-07-12T09:16:20.289Z,22.79
2016-07-12T09:17:10.536Z,22.87
2016-07-12T09:18:11.373Z,23.33
2016-07-12T09:19:09.547Z,23.29
2016-07-12T09:20:34.540Z,23.31
2016-07-12T09:21:23.070Z,23.38
2016-07-12T09:22:15.642Z,23.44
2016-07-12T09:23:28.056Z,23.43
2016-07-12T09:24:31.834Z,23.25
2016-07-12T09:25:26.281Z,23.21
2016-07-12T09:26:16.272Z,23.12
2016-07-12T09:27:34.197Z,23.11
2016-07-12T09:28:32.801Z,22.79
2016-07-12T09:29:33.010Z,22.67
2016-07-12T09:30:38.396Z,22.66
2016-07-12T09:31:22.373Z,22.59
2016-07-12T09:32:27.963Z,22.60
2016-07-12T09:33:13.723Z,22.57
2016-07-12T09:34:38.921Z,22.52
2016-07-12T09:35:29.651Z,22.50
2016-07-12T09:36:21.961Z,22.48
2016-07-12T09:37:35.538Z,23.00
2016-07-12T09:38:32.909Z,23.03
2016-07-12T09:39:35.097Z,23.03
2016-07-12T09:40:35.775Z,22.50
2016-07-12T09:41:37.900Z,22.47
2016-07-12T09:42:35.412Z,22.51
2016-07-12T09:43:28.893Z,22.55
2016-07-12T09:44:34.339Z,22.54
2016-07-12T09:45:28.173Z,22.56
2016-07-12T09:46:33.953Z,22.60
2016-07-12T09:47:27.927Z,22.62
2016-07-12T09:48:34.097Z,22.65
2016-07-12T09:49:33.309Z,22.62
2016-07-12T09:50:21.208Z,22.65
2016-07-12T09:51:33.419Z,22.68
2016-07-12T09:52:40.411Z,22.68
2016-07-12T09:53:34.648Z,22.67
2016-07-12T09:54:33.690Z,22.64
2016-07-12T09:55:29.199Z,22.66
2016-07-12T09:56:35.184Z,22.69
2016-07-12T09:57:34.417Z,22.68
2016-07-12T09:58:35.638Z,22.61
2016-07-12T09:59:42.011Z,22.57
2016-07-12T10:00:37.311Z,22.65
2016-07-12T10:01:27.406Z,22.68
2016-07-12T10:02:29.443Z,22.67
2016-07-12T10:03:22.813Z,22.74
2016-07-12T10:04:34.883Z,22.76
2016-07-12T10:05:29.953Z,22.79
2016-07-12T10:06:34.130Z,22.82
2016-07-12T10:07:34.368Z,22.81
2016-07-12T10:08:35.098Z,22.80
2016-07-12T10:09:34.476Z,22.81
2016-07-12T10:10:27.403Z,22.80
2016-07-12T10:11:30.835Z,22.81
2016-07-12T10:12:26.558Z,22.82
2016-07-12T10:13:21.859Z,22.74
2016-07-12T10:14:33.351Z,22.66
2016-07-12T10:15:34.230Z,22.62
2016-07-12T10:16:42.164Z,22.60
2016-07-12T10:17:35.603Z,22.57
2016-07-12T10:18:31.625Z,22.59
2016-07-12T10:19:35.827Z,22.55
2016-07-12T10:20:28.721Z,22.57
2016-07-12T10:21:32.859Z,22.55
2016-07-12T10:22:38.913Z,22.52
2016-07-12T10:23:34.490Z,22.58
2016-07-12T10:24:33.156Z,22.57
2016-07-12T10:25:30.746Z,22.64
2016-07-12T10:26:28.592Z,22.69
2016-07-12T10:27:37.259Z,22.71
2016-07-12T10:28:28.926Z,22.73
2016-07-12T10:29:28.201Z,22.72
2016-07-12T10:31:32.810Z,22.77
2016-07-12T10:32:32.142Z,22.75
2016-07-12T10:33:30.827Z,22.74
2016-07-12T10:35:25.436Z,22.77
2016-07-12T10:35:38.074Z,22.72
2016-07-12T10:36:31.040Z,22.69
2016-07-12T10:37:35.717Z,22.73
2016-07-12T10:38:24.008Z,22.72
2016-07-12T10:39:31.414Z,22.73
2016-07-12T10:40:35.426Z,22.76
2016-07-12T10:41:34.607Z,22.79
2016-07-12T10:42:34.139Z,22.82
2016-07-12T10:43:35.379Z,22.84
2016-07-12T10:44:39.777Z,22.84
2016-07-12T10:45:10.477Z,23.61
2016-07-12T10:46:20.281Z,23.88
2016-07-12T10:47:25.313Z,23.82
2016-07-12T10:48:24.299Z,23.74
2016-07-12T10:49:25.330Z,23.69
2016-07-12T10:50:16.066Z,23.65
2016-07-12T10:51:20.235Z,23.63
2016-07-12T10:52:24.635Z,23.63
2016-07-12T10:53:21.319Z,23.09
2016-07-12T10:54:20.145Z,23.05
2016-07-12T10:55:19.922Z,23.01
2016-07-12T10:56:20.907Z,23.00
2016-07-12T10:57:21.223Z,22.99
2016-07-12T10:58:21.226Z,22.97
2016-07-12T10:59:28.903Z,22.98
2016-07-12T11:00:20.738Z,22.96
2016-07-12T11:01:27.761Z,22.91
2016-07-12T11:02:23.352Z,22.89
2016-07-12T11:03:22.880Z,22.95
2016-07-12T11:04:22.017Z,22.99
2016-07-12T11:05:34.787Z,23.02
2016-07-12T11:06:14.116Z,23.06
2016-07-12T11:07:21.467Z,23.32
2016-07-12T11:08:20.090Z,23.17
2016-07-12T11:09:20.378Z,23.16
2016-07-12T11:10:17.214Z,23.17
2016-07-12T11:11:12.998Z,23.72
2016-07-12T11:12:17.258Z,23.24
2016-07-12T11:13:12.694Z,23.24
2016-07-12T11:14:15.274Z,23.23
2016-07-12T11:15:14.564Z,23.24
2016-07-12T11:16:17.131Z,23.24
2016-07-12T11:17:21.014Z,23.24
2016-07-12T11:18:21.991Z,23.29
2016-07-12T11:19:25.357Z,23.25
2016-07-12T11:20:25.161Z,23.25
2016-07-12T11:21:27.076Z,23.26
2016-07-12T11:22:19.327Z,23.26
2016-07-12T11:23:14.097Z,23.27
2016-07-12T11:24:17.527Z,23.27
2016-07-12T11:25:16.814Z,23.27
2016-07-12T11:26:14.926Z,23.27
2016-07-12T11:27:13.875Z,23.28
2016-07-12T11:28:22.449Z,23.29
2016-07-12T11:29:20.711Z,23.28
2016-07-12T11:30:19.580Z,23.30
2016-07-12T11:31:21.364Z,23.31
2016-07-12T11:32:16.004Z,23.29
2016-07-12T11:33:24.832Z,23.30
2016-07-12T11:34:23.844Z,23.29
2016-07-12T11:35:14.821Z,23.29
2016-07-12T11:36:13.391Z,23.30
2016-07-12T11:37:17.004Z,23.32
2016-07-12T11:38:25.308Z,23.31
2016-07-12T11:39:17.246Z,23.30
2016-07-12T11:40:20.614Z,23.31
2016-07-12T11:41:14.255Z,23.31
2016-07-12T11:42:14.567Z,23.33
2016-07-12T11:43:16.853Z,23.32
2016-07-12T11:44:15.727Z,23.32
2016-07-12T11:45:16.242Z,23.33
2016-07-12T11:46:14.671Z,23.33
2016-07-12T11:47:22.367Z,23.34
2016-07-12T11:48:21.055Z,23.33
2016-07-12T11:49:28.142Z,23.33
2016-07-12T11:50:19.942Z,23.33
2016-07-12T11:51:13.938Z,23.33
2016-07-12T11:52:14.598Z,23.31
2016-07-12T11:53:22.346Z,23.32
2016-07-12T11:54:19.726Z,23.34
2016-07-12T11:55:16.733Z,23.34
2016-07-12T11:56:21.112Z,23.35
2016-07-12T11:57:22.275Z,23.36
2016-07-12T11:58:17.857Z,23.36
2016-07-12T11:59:27.860Z,23.36
2016-07-12T12:00:16.184Z,23.36
2016-07-12T12:01:21.264Z,23.39
2016-07-12T12:02:17.416Z,23.35
2016-07-12T12:03:15.106Z,23.35
2016-07-12T12:04:15.192Z,23.88
2016-07-12T12:05:13.348Z,23.94
2016-07-12T12:06:13.695Z,23.96
2016-07-12T12:07:14.437Z,23.97
2016-07-12T12:08:15.261Z,23.47
2016-07-12T12:09:22.949Z,23.43
2016-07-12T12:10:15.981Z,23.41
2016-07-12T12:11:16.923Z,23.40
2016-07-12T12:12:16.931Z,23.40
2016-07-12T12:13:24.052Z,23.39
2016-07-12T12:14:15.587Z,23.38
2016-07-12T12:15:18.284Z,23.39
2016-07-12T12:16:16.297Z,23.37
2016-07-12T12:17:23.016Z,23.38
2016-07-12T12:18:13.078Z,23.38
2016-07-12T12:19:19.644Z,23.38
2016-07-12T12:20:16.005Z,23.38
2016-07-12T12:21:17.118Z,23.39
2016-07-12T12:22:17.312Z,23.38
2016-07-12T12:23:17.499Z,23.41
2016-07-12T12:24:18.146Z,23.38
2016-07-12T12:25:15.183Z,23.39
2016-07-12T12:26:15.247Z,23.38
2016-07-12T12:27:14.153Z,23.39
2016-07-12T12:28:16.536Z,23.38
2016-07-12T12:29:15.832Z,23.38
2016-07-12T12:30:17.996Z,23.40
2016-07-12T12:31:15.253Z,23.40
2016-07-12T12:32:14.240Z,23.39
2016-07-12T12:33:18.031Z,23.40
2016-07-12T12:34:19.953Z,23.39
2016-07-12T12:35:19.377Z,23.40
2016-07-12T12:36:13.810Z,23.41
2016-07-12T12:37:13.735Z,23.40
2016-07-12T12:38:14.513Z,23.41
2016-07-12T12:39:18.369Z,23.40
2016-07-12T12:40:14.901Z,23.40
2016-07-12T12:41:22.143Z,23.39
2016-07-12T12:42:16.551Z,23.39
2016-07-12T12:43:15.110Z,23.38
2016-07-12T12:44:16.057Z,23.39
2016-07-12T12:45:20.970Z,23.38
2016-07-12T12:46:18.434Z,23.38
2016-07-12T12:47:17.482Z,23.39
2016-07-12T12:48:17.195Z,23.39
2016-07-12T12:49:15.793Z,23.39
2016-07-12T12:50:13.631Z,23.40
2016-07-12T12:51:19.605Z,23.39
2016-07-12T12:52:17.420Z,23.40
2016-07-12T12:53:23.074Z,23.40
2016-07-12T12:54:20.107Z,23.40
2016-07-12T12:55:22.908Z,23.40
2016-07-12T12:56:20.940Z,23.39
2016-07-12T12:57:22.688Z,23.40
2016-07-12T12:58:14.937Z,23.40
2016-07-12T12:59:16.458Z,23.40
2016-07-12T13:00:16.133Z,23.40
2016-07-12T13:01:14.159Z,23.40
2016-07-12T13:02:14.379Z,23.40
2016-07-12T13:03:15.040Z,23.39
2016-07-12T13:04:17.036Z,23.40
2016-07-12T13:05:22.107Z,23.39
2016-07-12T13:06:21.462Z,23.39
2016-07-12T13:07:10.755Z,23.39
2016-07-12T13:08:20.415Z,23.39
2016-07-12T13:09:19.612Z,23.41
2016-07-12T13:10:25.727Z,23.39
2016-07-12T13:11:13.781Z,23.39
2016-07-12T13:12:26.698Z,23.39
2016-07-12T13:13:17.850Z,23.38
2016-07-12T13:14:16.160Z,23.38
2016-07-12T13:15:19.107Z,23.38
2016-07-12T13:16:16.825Z,23.38
2016-07-12T13:17:17.112Z,23.39
2016-07-12T13:18:20.596Z,23.38